sensor_id;sensor_type;location;lat;lon;timestamp;P1;durP1;ratioP1;P2;durP2;ratioP2
66127;SDS011;52925;52.436;-1.952;2023-02-22T00:00:49;9.70;;;7.37;;
66127;SDS011;52925;52.436;-1.952;2023-02-22T00:02:11;8.67;;;7.67;;
66127;SDS011;52925;52.436;-1.952;2023-02-22T00:03:46;8.57;;;7.40;;
66127;SDS011;52925;52.436;-1.952;2023-02-22T00:05:08;8.67;;;7.83;;
66127;SDS011;52925;52.436;-1.952;2023-02-22T00:06:28;9.90;;;7.53;;
66127;SDS011;52925;52.436;-1.952;2023-02-22T00:07:50;8.47;;;7.63;;
66127;SDS011;52925;52.436;-1.952;2023-02-22T00:09:10;9.80;;;8.80;;
66127;SDS011;52925;52.436;-1.952;2023-02-22T00:10:31;8.53;;;7.67;;
66127;SDS011;52925;52.436;-1.952;2023-02-22T00:11:51;9.27;;;7.67;;
66127;SDS011;52925;52.436;-1.952;2023-02-22T00:13:12;10.97;;;8.67;;
66127;SDS011;52925;52.436;-1.952;2023-02-22T00:14:32;9.80;;;8.60;;
66127;SDS011;52925;52.436;-1.952;2023-02-22T00:15:53;10.23;;;8.53;;
66127;SDS011;52925;52.436;-1.952;2023-02-22T00:17:13;9.60;;;8.47;;
66127;SDS011;52925;52.436;-1.952;2023-02-22T00:18:34;9.27;;;8.20;;
66127;SDS011;52925;52.436;-1.952;2023-02-22T00:19:57;10.80;;;8.17;;
66127;SDS011;52925;52.436;-1.952;2023-02-22T00:21:17;9.23;;;8.10;;
66127;SDS011;52925;52.436;-1.952;2023-02-22T00:22:38;9.30;;;8.30;;
66127;SDS011;52925;52.436;-1.952;2023-02-22T00:23:59;9.53;;;8.50;;
66127;SDS011;52925;52.436;-1.952;2023-02-22T00:25:35;9.67;;;8.63;;
66127;SDS011;52925;52.436;-1.952;2023-02-22T00:26:56;9.50;;;8.13;;
66127;SDS011;52925;52.436;-1.952;2023-02-22T00:28:16;9.83;;;8.47;;
66127;SDS011;52925;52.436;-1.952;2023-02-22T00:29:38;9.73;;;8.37;;
66127;SDS011;52925;52.436;-1.952;2023-02-22T00:31:04;9.10;;;8.17;;
66127;SDS011;52925;52.436;-1.952;2023-02-22T00:32:27;9.80;;;8.80;;
66127;SDS011;52925;52.436;-1.952;2023-02-22T00:33:47;10.80;;;8.40;;
66127;SDS011;52925;52.436;-1.952;2023-02-22T00:35:10;9.03;;;8.13;;
66127;SDS011;52925;52.436;-1.952;2023-02-22T00:36:30;9.57;;;8.40;;
66127;SDS011;52925;52.436;-1.952;2023-02-22T00:37:52;9.27;;;8.30;;
66127;SDS011;52925;52.436;-1.952;2023-02-22T00:39:13;10.17;;;8.63;;
66127;SDS011;52925;52.436;-1.952;2023-02-22T00:40:34;11.57;;;9.07;;
66127;SDS011;52925;52.436;-1.952;2023-02-22T00:41:54;10.57;;;8.77;;
66127;SDS011;52925;52.436;-1.952;2023-02-22T00:43:15;9.80;;;8.80;;
66127;SDS011;52925;52.436;-1.952;2023-02-22T00:44:36;9.47;;;8.43;;
66127;SDS011;52925;52.436;-1.952;2023-02-22T00:45:57;9.80;;;8.40;;
66127;SDS011;52925;52.436;-1.952;2023-02-22T00:47:18;12.00;;;8.77;;
66127;SDS011;52925;52.436;-1.952;2023-02-22T00:48:38;9.37;;;8.37;;
66127;SDS011;52925;52.436;-1.952;2023-02-22T00:49:59;9.50;;;8.50;;
66127;SDS011;52925;52.436;-1.952;2023-02-22T00:51:21;10.80;;;9.13;;
66127;SDS011;52925;52.436;-1.952;2023-02-22T00:52:44;9.13;;;8.23;;
66127;SDS011;52925;52.436;-1.952;2023-02-22T00:54:05;10.70;;;9.60;;
66127;SDS011;52925;52.436;-1.952;2023-02-22T00:55:29;10.80;;;8.87;;
66127;SDS011;52925;52.436;-1.952;2023-02-22T00:56:51;11.83;;;8.87;;
66127;SDS011;52925;52.436;-1.952;2023-02-22T00:58:11;10.10;;;8.77;;
66127;SDS011;52925;52.436;-1.952;2023-02-22T00:59:32;12.37;;;8.73;;
66127;SDS011;52925;52.436;-1.952;2023-02-22T01:00:52;11.90;;;9.03;;
66127;SDS011;52925;52.436;-1.952;2023-02-22T01:02:13;11.50;;;9.40;;
66127;SDS011;52925;52.436;-1.952;2023-02-22T01:03:32;9.80;;;8.80;;
66127;SDS011;52925;52.436;-1.952;2023-02-22T01:04:53;11.77;;;9.17;;
66127;SDS011;52925;52.436;-1.952;2023-02-22T01:06:14;10.13;;;9.07;;
66127;SDS011;52925;52.436;-1.952;2023-02-22T01:07:37;10.97;;;9.30;;
66127;SDS011;52925;52.436;-1.952;2023-02-22T01:08:57;12.70;;;9.67;;
66127;SDS011;52925;52.436;-1.952;2023-02-22T01:10:18;9.57;;;8.43;;
66127;SDS011;52925;52.436;-1.952;2023-02-22T01:11:40;9.73;;;8.73;;
66127;SDS011;52925;52.436;-1.952;2023-02-22T01:13:00;10.13;;;9.10;;
66127;SDS011;52925;52.436;-1.952;2023-02-22T01:14:27;10.20;;;9.13;;
66127;SDS011;52925;52.436;-1.952;2023-02-22T01:15:47;10.47;;;8.53;;
66127;SDS011;52925;52.436;-1.952;2023-02-22T01:17:07;10.40;;;8.97;;
66127;SDS011;52925;52.436;-1.952;2023-02-22T01:18:28;10.67;;;9.07;;
66127;SDS011;52925;52.436;-1.952;2023-02-22T01:19:48;9.33;;;8.43;;
66127;SDS011;52925;52.436;-1.952;2023-02-22T01:21:10;10.40;;;9.30;;
66127;SDS011;52925;52.436;-1.952;2023-02-22T01:22:30;10.40;;;8.63;;
66127;SDS011;52925;52.436;-1.952;2023-02-22T01:23:52;9.50;;;8.43;;
66127;SDS011;52925;52.436;-1.952;2023-02-22T01:25:15;9.13;;;8.23;;
66127;SDS011;52925;52.436;-1.952;2023-02-22T01:26:36;10.30;;;9.03;;
66127;SDS011;52925;52.436;-1.952;2023-02-22T01:27:58;9.63;;;8.67;;
66127;SDS011;52925;52.436;-1.952;2023-02-22T01:29:19;10.70;;;8.10;;
66127;SDS011;52925;52.436;-1.952;2023-02-22T01:30:40;9.87;;;8.87;;
66127;SDS011;52925;52.436;-1.952;2023-02-22T01:32:00;10.10;;;8.33;;
66127;SDS011;52925;52.436;-1.952;2023-02-22T01:33:21;9.80;;;8.80;;
66127;SDS011;52925;52.436;-1.952;2023-02-22T01:34:41;10.73;;;8.73;;
66127;SDS011;52925;52.436;-1.952;2023-02-22T01:36:03;9.10;;;8.20;;
66127;SDS011;52925;52.436;-1.952;2023-02-22T01:37:29;9.27;;;8.30;;
66127;SDS011;52925;52.436;-1.952;2023-02-22T01:38:49;9.63;;;8.30;;
66127;SDS011;52925;52.436;-1.952;2023-02-22T01:40:14;9.17;;;8.20;;
66127;SDS011;52925;52.436;-1.952;2023-02-22T01:41:38;9.13;;;8.17;;
66127;SDS011;52925;52.436;-1.952;2023-02-22T01:43:00;9.77;;;8.80;;
66127;SDS011;52925;52.436;-1.952;2023-02-22T01:44:26;10.60;;;8.83;;
66127;SDS011;52925;52.436;-1.952;2023-02-22T01:45:49;10.23;;;8.23;;
66127;SDS011;52925;52.436;-1.952;2023-02-22T01:47:15;9.20;;;8.30;;
66127;SDS011;52925;52.436;-1.952;2023-02-22T01:48:36;10.07;;;8.80;;
66127;SDS011;52925;52.436;-1.952;2023-02-22T01:49:59;10.50;;;9.37;;
66127;SDS011;52925;52.436;-1.952;2023-02-22T01:51:20;10.93;;;9.27;;
66127;SDS011;52925;52.436;-1.952;2023-02-22T01:52:44;10.60;;;8.87;;
66127;SDS011;52925;52.436;-1.952;2023-02-22T01:54:05;9.50;;;8.50;;
66127;SDS011;52925;52.436;-1.952;2023-02-22T01:55:30;10.30;;;9.20;;
66127;SDS011;52925;52.436;-1.952;2023-02-22T01:56:52;11.03;;;9.13;;
66127;SDS011;52925;52.436;-1.952;2023-02-22T01:58:18;10.13;;;9.13;;
66127;SDS011;52925;52.436;-1.952;2023-02-22T01:59:41;10.87;;;9.40;;
66127;SDS011;52925;52.436;-1.952;2023-02-22T02:01:05;9.67;;;8.67;;
66127;SDS011;52925;52.436;-1.952;2023-02-22T02:02:25;10.00;;;9.00;;
66127;SDS011;52925;52.436;-1.952;2023-02-22T02:03:47;10.47;;;9.37;;
66127;SDS011;52925;52.436;-1.952;2023-02-22T02:05:09;11.10;;;9.47;;
66127;SDS011;52925;52.436;-1.952;2023-02-22T02:06:31;10.47;;;9.23;;
66127;SDS011;52925;52.436;-1.952;2023-02-22T02:07:52;12.43;;;10.20;;
66127;SDS011;52925;52.436;-1.952;2023-02-22T02:09:15;11.13;;;9.20;;
66127;SDS011;52925;52.436;-1.952;2023-02-22T02:10:43;11.17;;;9.70;;
66127;SDS011;52925;52.436;-1.952;2023-02-22T02:12:02;11.73;;;9.83;;
66127;SDS011;52925;52.436;-1.952;2023-02-22T02:13:25;11.63;;;10.07;;
66127;SDS011;52925;52.436;-1.952;2023-02-22T02:14:47;12.80;;;10.00;;
66127;SDS011;52925;52.436;-1.952;2023-02-22T02:16:08;12.23;;;9.33;;
66127;SDS011;52925;52.436;-1.952;2023-02-22T02:17:28;12.10;;;10.43;;
66127;SDS011;52925;52.436;-1.952;2023-02-22T02:18:49;11.50;;;10.07;;
66127;SDS011;52925;52.436;-1.952;2023-02-22T02:20:12;12.77;;;9.83;;
66127;SDS011;52925;52.436;-1.952;2023-02-22T02:21:38;11.17;;;10.07;;
66127;SDS011;52925;52.436;-1.952;2023-02-22T02:23:13;11.33;;;9.97;;
66127;SDS011;52925;52.436;-1.952;2023-02-22T02:24:59;12.03;;;10.13;;
66127;SDS011;52925;52.436;-1.952;2023-02-22T02:26:50;12.73;;;10.17;;
66127;SDS011;52925;52.436;-1.952;2023-02-22T02:30:42;12.70;;;10.10;;
66127;SDS011;52925;52.436;-1.952;2023-02-22T02:32:23;11.57;;;9.37;;
66127;SDS011;52925;52.436;-1.952;2023-02-22T02:33:52;14.83;;;10.33;;
66127;SDS011;52925;52.436;-1.952;2023-02-22T02:35:18;13.63;;;10.23;;
66127;SDS011;52925;52.436;-1.952;2023-02-22T02:36:47;13.43;;;10.80;;
66127;SDS011;52925;52.436;-1.952;2023-02-22T02:38:20;14.03;;;10.80;;
66127;SDS011;52925;52.436;-1.952;2023-02-22T02:39:50;12.47;;;9.63;;
66127;SDS011;52925;52.436;-1.952;2023-02-22T02:41:15;12.43;;;9.97;;
66127;SDS011;52925;52.436;-1.952;2023-02-22T02:42:41;12.37;;;10.13;;
66127;SDS011;52925;52.436;-1.952;2023-02-22T02:44:10;13.53;;;10.50;;
66127;SDS011;52925;52.436;-1.952;2023-02-22T02:45:35;12.20;;;9.70;;
66127;SDS011;52925;52.436;-1.952;2023-02-22T02:47:01;12.53;;;10.27;;
66127;SDS011;52925;52.436;-1.952;2023-02-22T02:48:27;11.93;;;9.17;;
66127;SDS011;52925;52.436;-1.952;2023-02-22T02:49:53;13.00;;;10.00;;
66127;SDS011;52925;52.436;-1.952;2023-02-22T02:51:17;12.33;;;9.43;;
66127;SDS011;52925;52.436;-1.952;2023-02-22T02:52:39;13.80;;;10.20;;
66127;SDS011;52925;52.436;-1.952;2023-02-22T02:54:01;12.17;;;10.13;;
66127;SDS011;52925;52.436;-1.952;2023-02-22T02:55:23;12.87;;;10.50;;
66127;SDS011;52925;52.436;-1.952;2023-02-22T02:56:43;13.03;;;10.07;;
66127;SDS011;52925;52.436;-1.952;2023-02-22T02:58:05;13.00;;;9.73;;
66127;SDS011;52925;52.436;-1.952;2023-02-22T02:59:27;12.27;;;9.30;;
66127;SDS011;52925;52.436;-1.952;2023-02-22T03:00:49;14.13;;;10.53;;
66127;SDS011;52925;52.436;-1.952;2023-02-22T03:02:19;13.20;;;9.53;;
66127;SDS011;52925;52.436;-1.952;2023-02-22T03:04:00;13.97;;;10.70;;
66127;SDS011;52925;52.436;-1.952;2023-02-22T03:05:47;14.50;;;9.90;;
66127;SDS011;52925;52.436;-1.952;2023-02-22T03:07:19;13.33;;;10.07;;
66127;SDS011;52925;52.436;-1.952;2023-02-22T03:08:53;12.07;;;9.87;;
66127;SDS011;52925;52.436;-1.952;2023-02-22T03:10:27;15.03;;;10.13;;
66127;SDS011;52925;52.436;-1.952;2023-02-22T03:12:06;11.67;;;9.23;;
66127;SDS011;52925;52.436;-1.952;2023-02-22T03:13:35;11.30;;;8.60;;
66127;SDS011;52925;52.436;-1.952;2023-02-22T03:15:05;12.43;;;9.33;;
66127;SDS011;52925;52.436;-1.952;2023-02-22T03:16:33;12.20;;;9.63;;
66127;SDS011;52925;52.436;-1.952;2023-02-22T03:18:04;12.23;;;9.13;;
66127;SDS011;52925;52.436;-1.952;2023-02-22T03:19:29;11.77;;;9.17;;
66127;SDS011;52925;52.436;-1.952;2023-02-22T03:20:57;12.77;;;9.50;;
66127;SDS011;52925;52.436;-1.952;2023-02-22T03:22:29;13.13;;;10.03;;
66127;SDS011;52925;52.436;-1.952;2023-02-22T03:23:54;12.63;;;9.00;;
66127;SDS011;52925;52.436;-1.952;2023-02-22T03:25:23;12.07;;;9.33;;
66127;SDS011;52925;52.436;-1.952;2023-02-22T03:26:52;12.83;;;9.80;;
66127;SDS011;52925;52.436;-1.952;2023-02-22T03:28:21;12.63;;;9.77;;
66127;SDS011;52925;52.436;-1.952;2023-02-22T03:29:45;12.30;;;9.07;;
66127;SDS011;52925;52.436;-1.952;2023-02-22T03:31:09;10.93;;;8.97;;
66127;SDS011;52925;52.436;-1.952;2023-02-22T03:32:34;13.07;;;9.43;;
66127;SDS011;52925;52.436;-1.952;2023-02-22T03:33:58;12.23;;;9.73;;
66127;SDS011;52925;52.436;-1.952;2023-02-22T03:35:27;13.43;;;10.00;;
66127;SDS011;52925;52.436;-1.952;2023-02-22T03:36:53;11.10;;;8.87;;
66127;SDS011;52925;52.436;-1.952;2023-02-22T03:38:19;11.60;;;8.87;;
66127;SDS011;52925;52.436;-1.952;2023-02-22T03:39:42;12.93;;;9.07;;
66127;SDS011;52925;52.436;-1.952;2023-02-22T03:41:04;12.10;;;8.77;;
66127;SDS011;52925;52.436;-1.952;2023-02-22T03:42:28;11.80;;;9.20;;
66127;SDS011;52925;52.436;-1.952;2023-02-22T03:43:57;11.43;;;8.90;;
66127;SDS011;52925;52.436;-1.952;2023-02-22T03:45:21;10.90;;;9.23;;
66127;SDS011;52925;52.436;-1.952;2023-02-22T03:46:45;11.67;;;9.20;;
66127;SDS011;52925;52.436;-1.952;2023-02-22T03:48:13;12.10;;;9.67;;
66127;SDS011;52925;52.436;-1.952;2023-02-22T03:49:38;11.57;;;8.97;;
66127;SDS011;52925;52.436;-1.952;2023-02-22T03:51:04;11.23;;;8.57;;
66127;SDS011;52925;52.436;-1.952;2023-02-22T03:52:25;13.47;;;9.27;;
66127;SDS011;52925;52.436;-1.952;2023-02-22T03:53:46;12.30;;;9.03;;
66127;SDS011;52925;52.436;-1.952;2023-02-22T03:55:07;12.37;;;9.47;;
66127;SDS011;52925;52.436;-1.952;2023-02-22T03:56:30;11.30;;;9.10;;
66127;SDS011;52925;52.436;-1.952;2023-02-22T03:57:54;10.30;;;8.93;;
66127;SDS011;52925;52.436;-1.952;2023-02-22T03:59:18;12.90;;;9.63;;
66127;SDS011;52925;52.436;-1.952;2023-02-22T04:00:43;12.63;;;9.37;;
66127;SDS011;52925;52.436;-1.952;2023-02-22T04:02:04;11.53;;;8.93;;
66127;SDS011;52925;52.436;-1.952;2023-02-22T04:03:24;10.93;;;9.00;;
66127;SDS011;52925;52.436;-1.952;2023-02-22T04:04:45;13.10;;;10.07;;
66127;SDS011;52925;52.436;-1.952;2023-02-22T04:06:07;12.50;;;9.80;;
66127;SDS011;52925;52.436;-1.952;2023-02-22T04:07:29;13.03;;;9.80;;
66127;SDS011;52925;52.436;-1.952;2023-02-22T04:08:49;12.20;;;9.83;;
66127;SDS011;52925;52.436;-1.952;2023-02-22T04:10:11;10.97;;;8.80;;
66127;SDS011;52925;52.436;-1.952;2023-02-22T04:11:31;12.83;;;9.33;;
66127;SDS011;52925;52.436;-1.952;2023-02-22T04:12:52;12.67;;;9.03;;
66127;SDS011;52925;52.436;-1.952;2023-02-22T04:14:12;11.97;;;9.07;;
66127;SDS011;52925;52.436;-1.952;2023-02-22T04:15:33;16.20;;;10.17;;
66127;SDS011;52925;52.436;-1.952;2023-02-22T04:16:56;13.13;;;10.30;;
66127;SDS011;52925;52.436;-1.952;2023-02-22T04:18:17;14.30;;;9.30;;
66127;SDS011;52925;52.436;-1.952;2023-02-22T04:19:39;11.87;;;9.60;;
66127;SDS011;52925;52.436;-1.952;2023-02-22T04:21:02;15.20;;;10.87;;
66127;SDS011;52925;52.436;-1.952;2023-02-22T04:22:29;12.53;;;10.07;;
66127;SDS011;52925;52.436;-1.952;2023-02-22T04:23:50;13.23;;;10.23;;
66127;SDS011;52925;52.436;-1.952;2023-02-22T04:25:13;12.83;;;9.73;;
66127;SDS011;52925;52.436;-1.952;2023-02-22T04:26:33;14.63;;;11.23;;
66127;SDS011;52925;52.436;-1.952;2023-02-22T04:27:55;10.70;;;9.47;;
66127;SDS011;52925;52.436;-1.952;2023-02-22T04:29:36;12.23;;;9.93;;
66127;SDS011;52925;52.436;-1.952;2023-02-22T04:30:58;13.50;;;10.37;;
66127;SDS011;52925;52.436;-1.952;2023-02-22T04:32:19;12.50;;;10.37;;
66127;SDS011;52925;52.436;-1.952;2023-02-22T04:33:40;15.07;;;10.77;;
66127;SDS011;52925;52.436;-1.952;2023-02-22T04:35:04;14.70;;;11.67;;
66127;SDS011;52925;52.436;-1.952;2023-02-22T04:36:25;13.47;;;10.87;;
66127;SDS011;52925;52.436;-1.952;2023-02-22T04:37:52;14.03;;;10.70;;
66127;SDS011;52925;52.436;-1.952;2023-02-22T04:39:13;16.37;;;11.53;;
66127;SDS011;52925;52.436;-1.952;2023-02-22T04:40:33;13.97;;;11.30;;
66127;SDS011;52925;52.436;-1.952;2023-02-22T04:41:54;14.67;;;11.60;;
66127;SDS011;52925;52.436;-1.952;2023-02-22T04:43:14;14.10;;;11.47;;
66127;SDS011;52925;52.436;-1.952;2023-02-22T04:44:34;14.00;;;11.53;;
66127;SDS011;52925;52.436;-1.952;2023-02-22T04:45:55;14.67;;;11.67;;
66127;SDS011;52925;52.436;-1.952;2023-02-22T04:47:16;15.03;;;11.93;;
66127;SDS011;52925;52.436;-1.952;2023-02-22T04:48:36;14.83;;;11.60;;
66127;SDS011;52925;52.436;-1.952;2023-02-22T04:49:56;15.10;;;11.73;;
66127;SDS011;52925;52.436;-1.952;2023-02-22T04:51:18;15.20;;;11.97;;
66127;SDS011;52925;52.436;-1.952;2023-02-22T04:53:00;15.17;;;11.47;;
66127;SDS011;52925;52.436;-1.952;2023-02-22T04:54:21;14.83;;;11.80;;
66127;SDS011;52925;52.436;-1.952;2023-02-22T04:55:41;15.23;;;13.13;;
66127;SDS011;52925;52.436;-1.952;2023-02-22T04:57:03;16.90;;;12.33;;
66127;SDS011;52925;52.436;-1.952;2023-02-22T04:58:25;17.70;;;12.37;;
66127;SDS011;52925;52.436;-1.952;2023-02-22T04:59:46;15.87;;;12.30;;
66127;SDS011;52925;52.436;-1.952;2023-02-22T05:01:07;15.47;;;12.10;;
66127;SDS011;52925;52.436;-1.952;2023-02-22T05:02:27;17.37;;;12.40;;
66127;SDS011;52925;52.436;-1.952;2023-02-22T05:03:48;16.47;;;12.40;;
66127;SDS011;52925;52.436;-1.952;2023-02-22T05:05:08;16.30;;;12.53;;
66127;SDS011;52925;52.436;-1.952;2023-02-22T05:06:28;16.67;;;12.70;;
66127;SDS011;52925;52.436;-1.952;2023-02-22T05:07:48;15.97;;;12.30;;
66127;SDS011;52925;52.436;-1.952;2023-02-22T05:09:11;19.67;;;13.37;;
66127;SDS011;52925;52.436;-1.952;2023-02-22T05:10:31;17.37;;;12.97;;
66127;SDS011;52925;52.436;-1.952;2023-02-22T05:11:52;17.57;;;13.00;;
66127;SDS011;52925;52.436;-1.952;2023-02-22T05:13:12;15.30;;;12.63;;
66127;SDS011;52925;52.436;-1.952;2023-02-22T05:14:33;16.97;;;13.33;;
66127;SDS011;52925;52.436;-1.952;2023-02-22T05:15:53;17.33;;;12.60;;
66127;SDS011;52925;52.436;-1.952;2023-02-22T05:17:14;16.17;;;13.03;;
66127;SDS011;52925;52.436;-1.952;2023-02-22T05:18:34;17.03;;;13.57;;
66127;SDS011;52925;52.436;-1.952;2023-02-22T05:19:55;18.37;;;14.33;;
66127;SDS011;52925;52.436;-1.952;2023-02-22T05:21:16;16.60;;;13.40;;
66127;SDS011;52925;52.436;-1.952;2023-02-22T05:22:36;17.17;;;12.97;;
66127;SDS011;52925;52.436;-1.952;2023-02-22T05:23:57;18.27;;;14.00;;
66127;SDS011;52925;52.436;-1.952;2023-02-22T05:25:19;17.23;;;13.77;;
66127;SDS011;52925;52.436;-1.952;2023-02-22T05:26:41;19.37;;;14.50;;
66127;SDS011;52925;52.436;-1.952;2023-02-22T05:28:03;19.57;;;14.60;;
66127;SDS011;52925;52.436;-1.952;2023-02-22T05:29:26;20.30;;;14.03;;
66127;SDS011;52925;52.436;-1.952;2023-02-22T05:30:46;18.90;;;15.03;;
66127;SDS011;52925;52.436;-1.952;2023-02-22T05:32:08;21.33;;;15.30;;
66127;SDS011;52925;52.436;-1.952;2023-02-22T05:33:30;20.67;;;15.43;;
66127;SDS011;52925;52.436;-1.952;2023-02-22T05:34:49;19.57;;;14.87;;
66127;SDS011;52925;52.436;-1.952;2023-02-22T05:36:11;19.70;;;14.43;;
66127;SDS011;52925;52.436;-1.952;2023-02-22T05:37:32;18.27;;;14.23;;
66127;SDS011;52925;52.436;-1.952;2023-02-22T05:38:52;21.40;;;16.37;;
66127;SDS011;52925;52.436;-1.952;2023-02-22T05:40:13;18.53;;;14.60;;
66127;SDS011;52925;52.436;-1.952;2023-02-22T05:41:36;20.50;;;15.63;;
66127;SDS011;52925;52.436;-1.952;2023-02-22T05:42:57;22.33;;;15.73;;
66127;SDS011;52925;52.436;-1.952;2023-02-22T05:44:19;18.30;;;14.97;;
66127;SDS011;52925;52.436;-1.952;2023-02-22T05:45:39;22.67;;;15.57;;
66127;SDS011;52925;52.436;-1.952;2023-02-22T05:47:00;19.07;;;14.87;;
66127;SDS011;52925;52.436;-1.952;2023-02-22T05:48:20;19.10;;;15.83;;
66127;SDS011;52925;52.436;-1.952;2023-02-22T05:49:41;23.23;;;16.37;;
66127;SDS011;52925;52.436;-1.952;2023-02-22T05:51:02;21.13;;;15.43;;
66127;SDS011;52925;52.436;-1.952;2023-02-22T05:52:23;21.00;;;16.07;;
66127;SDS011;52925;52.436;-1.952;2023-02-22T05:53:43;22.93;;;16.77;;
66127;SDS011;52925;52.436;-1.952;2023-02-22T05:55:04;21.70;;;15.53;;
66127;SDS011;52925;52.436;-1.952;2023-02-22T05:56:25;21.73;;;16.17;;
66127;SDS011;52925;52.436;-1.952;2023-02-22T05:57:49;22.57;;;16.23;;
66127;SDS011;52925;52.436;-1.952;2023-02-22T05:59:10;22.90;;;16.77;;
66127;SDS011;52925;52.436;-1.952;2023-02-22T06:00:30;21.40;;;15.70;;
66127;SDS011;52925;52.436;-1.952;2023-02-22T06:01:50;22.80;;;16.33;;
66127;SDS011;52925;52.436;-1.952;2023-02-22T06:03:11;21.50;;;15.77;;
66127;SDS011;52925;52.436;-1.952;2023-02-22T06:04:32;21.27;;;15.80;;
66127;SDS011;52925;52.436;-1.952;2023-02-22T06:05:53;21.47;;;16.47;;
66127;SDS011;52925;52.436;-1.952;2023-02-22T06:07:14;20.20;;;15.80;;
66127;SDS011;52925;52.436;-1.952;2023-02-22T06:08:35;23.93;;;16.60;;
66127;SDS011;52925;52.436;-1.952;2023-02-22T06:09:56;21.17;;;16.10;;
66127;SDS011;52925;52.436;-1.952;2023-02-22T06:11:16;20.60;;;16.17;;
66127;SDS011;52925;52.436;-1.952;2023-02-22T06:12:38;21.57;;;17.13;;
66127;SDS011;52925;52.436;-1.952;2023-02-22T06:13:59;22.83;;;16.73;;
66127;SDS011;52925;52.436;-1.952;2023-02-22T06:15:21;20.60;;;16.10;;
66127;SDS011;52925;52.436;-1.952;2023-02-22T06:16:41;24.07;;;17.37;;
66127;SDS011;52925;52.436;-1.952;2023-02-22T06:18:03;21.43;;;16.03;;
66127;SDS011;52925;52.436;-1.952;2023-02-22T06:19:23;19.93;;;15.23;;
66127;SDS011;52925;52.436;-1.952;2023-02-22T06:20:44;20.17;;;16.00;;
66127;SDS011;52925;52.436;-1.952;2023-02-22T06:22:05;21.37;;;16.27;;
66127;SDS011;52925;52.436;-1.952;2023-02-22T06:23:27;21.37;;;16.20;;
66127;SDS011;52925;52.436;-1.952;2023-02-22T06:24:47;21.07;;;15.87;;
66127;SDS011;52925;52.436;-1.952;2023-02-22T06:26:08;21.33;;;16.87;;
66127;SDS011;52925;52.436;-1.952;2023-02-22T06:27:29;18.47;;;14.17;;
66127;SDS011;52925;52.436;-1.952;2023-02-22T06:28:50;21.83;;;14.80;;
66127;SDS011;52925;52.436;-1.952;2023-02-22T06:30:13;29.03;;;15.87;;
66127;SDS011;52925;52.436;-1.952;2023-02-22T06:31:34;21.57;;;15.77;;
66127;SDS011;52925;52.436;-1.952;2023-02-22T06:32:56;21.77;;;16.20;;
66127;SDS011;52925;52.436;-1.952;2023-02-22T06:34:16;20.40;;;15.53;;
66127;SDS011;52925;52.436;-1.952;2023-02-22T06:35:37;22.63;;;16.03;;
66127;SDS011;52925;52.436;-1.952;2023-02-22T06:36:59;24.40;;;16.23;;
66127;SDS011;52925;52.436;-1.952;2023-02-22T06:38:19;22.07;;;15.73;;
66127;SDS011;52925;52.436;-1.952;2023-02-22T06:39:41;22.13;;;15.93;;
66127;SDS011;52925;52.436;-1.952;2023-02-22T06:41:00;22.00;;;15.50;;
66127;SDS011;52925;52.436;-1.952;2023-02-22T06:42:21;22.63;;;16.43;;
66127;SDS011;52925;52.436;-1.952;2023-02-22T06:43:42;21.87;;;15.57;;
66127;SDS011;52925;52.436;-1.952;2023-02-22T06:45:02;23.00;;;16.10;;
66127;SDS011;52925;52.436;-1.952;2023-02-22T06:46:25;33.13;;;15.93;;
66127;SDS011;52925;52.436;-1.952;2023-02-22T06:47:46;23.90;;;15.77;;
66127;SDS011;52925;52.436;-1.952;2023-02-22T06:49:07;20.97;;;15.27;;
66127;SDS011;52925;52.436;-1.952;2023-02-22T06:50:28;22.40;;;15.10;;
66127;SDS011;52925;52.436;-1.952;2023-02-22T06:51:52;20.87;;;15.53;;
66127;SDS011;52925;52.436;-1.952;2023-02-22T06:53:13;22.53;;;15.47;;
66127;SDS011;52925;52.436;-1.952;2023-02-22T06:54:34;21.10;;;15.23;;
66127;SDS011;52925;52.436;-1.952;2023-02-22T06:55:55;22.20;;;16.07;;
66127;SDS011;52925;52.436;-1.952;2023-02-22T06:57:16;21.73;;;15.67;;
66127;SDS011;52925;52.436;-1.952;2023-02-22T06:58:37;19.70;;;15.00;;
66127;SDS011;52925;52.436;-1.952;2023-02-22T06:59:58;23.57;;;15.53;;
66127;SDS011;52925;52.436;-1.952;2023-02-22T07:01:18;20.97;;;14.90;;
66127;SDS011;52925;52.436;-1.952;2023-02-22T07:02:40;22.63;;;15.40;;
66127;SDS011;52925;52.436;-1.952;2023-02-22T07:04:02;20.43;;;15.43;;
66127;SDS011;52925;52.436;-1.952;2023-02-22T07:05:23;21.07;;;15.70;;
66127;SDS011;52925;52.436;-1.952;2023-02-22T07:06:45;22.70;;;15.77;;
66127;SDS011;52925;52.436;-1.952;2023-02-22T07:08:06;20.70;;;16.03;;
66127;SDS011;52925;52.436;-1.952;2023-02-22T07:09:28;23.80;;;16.40;;
66127;SDS011;52925;52.436;-1.952;2023-02-22T07:10:47;22.20;;;16.13;;
66127;SDS011;52925;52.436;-1.952;2023-02-22T07:12:10;21.30;;;14.43;;
66127;SDS011;52925;52.436;-1.952;2023-02-22T07:13:31;18.23;;;14.53;;
66127;SDS011;52925;52.436;-1.952;2023-02-22T07:14:53;20.17;;;15.17;;
66127;SDS011;52925;52.436;-1.952;2023-02-22T07:16:13;21.43;;;14.90;;
66127;SDS011;52925;52.436;-1.952;2023-02-22T07:17:34;20.97;;;14.40;;
66127;SDS011;52925;52.436;-1.952;2023-02-22T07:18:57;18.70;;;14.50;;
66127;SDS011;52925;52.436;-1.952;2023-02-22T07:20:18;18.77;;;14.00;;
66127;SDS011;52925;52.436;-1.952;2023-02-22T07:21:41;20.37;;;15.60;;
66127;SDS011;52925;52.436;-1.952;2023-02-22T07:23:02;18.73;;;14.07;;
66127;SDS011;52925;52.436;-1.952;2023-02-22T07:24:23;19.10;;;14.50;;
66127;SDS011;52925;52.436;-1.952;2023-02-22T07:25:46;19.93;;;15.00;;
66127;SDS011;52925;52.436;-1.952;2023-02-22T07:27:07;23.13;;;15.63;;
66127;SDS011;52925;52.436;-1.952;2023-02-22T07:28:28;20.60;;;15.03;;
66127;SDS011;52925;52.436;-1.952;2023-02-22T07:29:49;23.13;;;16.87;;
66127;SDS011;52925;52.436;-1.952;2023-02-22T07:31:09;20.40;;;14.67;;
66127;SDS011;52925;52.436;-1.952;2023-02-22T07:32:29;21.00;;;15.90;;
66127;SDS011;52925;52.436;-1.952;2023-02-22T07:33:50;20.17;;;15.77;;
66127;SDS011;52925;52.436;-1.952;2023-02-22T07:35:14;22.17;;;15.17;;
66127;SDS011;52925;52.436;-1.952;2023-02-22T07:36:36;23.43;;;16.50;;
66127;SDS011;52925;52.436;-1.952;2023-02-22T07:37:57;21.40;;;15.77;;
66127;SDS011;52925;52.436;-1.952;2023-02-22T07:39:17;20.27;;;15.37;;
66127;SDS011;52925;52.436;-1.952;2023-02-22T07:40:39;22.23;;;16.60;;
66127;SDS011;52925;52.436;-1.952;2023-02-22T07:42:01;20.30;;;15.23;;
66127;SDS011;52925;52.436;-1.952;2023-02-22T07:43:22;21.17;;;15.77;;
66127;SDS011;52925;52.436;-1.952;2023-02-22T07:44:45;20.97;;;15.60;;
66127;SDS011;52925;52.436;-1.952;2023-02-22T07:46:06;21.67;;;15.47;;
66127;SDS011;52925;52.436;-1.952;2023-02-22T07:47:26;21.97;;;16.07;;
66127;SDS011;52925;52.436;-1.952;2023-02-22T07:48:46;20.00;;;15.17;;
66127;SDS011;52925;52.436;-1.952;2023-02-22T07:50:07;20.80;;;16.03;;
66127;SDS011;52925;52.436;-1.952;2023-02-22T07:51:29;18.90;;;14.53;;
66127;SDS011;52925;52.436;-1.952;2023-02-22T07:52:50;22.70;;;15.73;;
66127;SDS011;52925;52.436;-1.952;2023-02-22T07:54:13;21.97;;;16.47;;
66127;SDS011;52925;52.436;-1.952;2023-02-22T07:55:34;19.47;;;15.03;;
66127;SDS011;52925;52.436;-1.952;2023-02-22T07:56:56;21.40;;;16.63;;
66127;SDS011;52925;52.436;-1.952;2023-02-22T07:58:17;19.10;;;15.50;;
66127;SDS011;52925;52.436;-1.952;2023-02-22T07:59:39;20.37;;;15.77;;
66127;SDS011;52925;52.436;-1.952;2023-02-22T08:01:01;21.23;;;16.60;;
66127;SDS011;52925;52.436;-1.952;2023-02-22T08:02:21;21.87;;;16.10;;
66127;SDS011;52925;52.436;-1.952;2023-02-22T08:03:43;21.27;;;16.20;;